Huntsburg, Ohio
Current Conditions -  °F | °C
As of 7:45 AM on Sunday 21 Dec 2014 (Local Time) from KCGF Reporting Station
Overcast Overcast  
Wind Chill: 27°   Ceiling: 2500
Heat Index: 32°   Visibility: 7mi
Dew Point: 25°   Wind: 5mph
Humidity: 75%   Direction: 240°WSW
Pressure: 30.32"   Gusts: NA
Location:  41.53°N, 81.05°W
Report Text: KCGF 211245Z 24004KT 7SM OVC025 00/M04 A3032
Loading
Personal Weather Stations






























Interactive Weather Map New forecast layout! Learn more

10-Day Weather Forecast

Advertisements
Track Severe Weather on mobile